sensor_id;sensor_type;location;lat;lon;timestamp;pressure;altitude;pressure_sealevel;temperature;humidity
59073;BME280;44859;51.934;15.554;2023-03-01T00:01:39;101234.69;;;-4.17;80.33
59073;BME280;44859;51.934;15.554;2023-03-01T00:05:32;101233.08;;;-4.19;80.85
59073;BME280;44859;51.934;15.554;2023-03-01T00:09:07;101237.02;;;-4.19;80.76
59073;BME280;44859;51.934;15.554;2023-03-01T00:16:46;101231.33;;;-4.20;80.83
59073;BME280;44859;51.934;15.554;2023-03-01T00:20:27;101234.55;;;-4.21;81.00
59073;BME280;44859;51.934;15.554;2023-03-01T00:23:34;101225.38;;;-4.23;80.76
59073;BME280;44859;51.934;15.554;2023-03-01T00:26:33;101221.30;;;-4.27;80.89
59073;BME280;44859;51.934;15.554;2023-03-01T00:33:29;101215.91;;;-4.35;81.03
59073;BME280;44859;51.934;15.554;2023-03-01T00:36:29;101213.09;;;-4.37;81.17
59073;BME280;44859;51.934;15.554;2023-03-01T00:43:52;101205.38;;;-4.46;81.23
59073;BME280;44859;51.934;15.554;2023-03-01T00:47:02;101206.73;;;-4.47;81.05
59073;BME280;44859;51.934;15.554;2023-03-01T00:54:46;101205.31;;;-4.48;81.51
59073;BME280;44859;51.934;15.554;2023-03-01T01:02:15;101203.77;;;-4.48;81.87
59073;BME280;44859;51.934;15.554;2023-03-01T01:06:25;101200.23;;;-4.46;81.75
59073;BME280;44859;51.934;15.554;2023-03-01T01:14:00;101188.27;;;-4.50;81.77
59073;BME280;44859;51.934;15.554;2023-03-01T01:24:45;101183.73;;;-4.57;82.32
59073;BME280;44859;51.934;15.554;2023-03-01T01:28:54;101178.58;;;-4.57;82.22
59073;BME280;44859;51.934;15.554;2023-03-01T01:31:56;101177.89;;;-4.57;82.04
59073;BME280;44859;51.934;15.554;2023-03-01T01:42:00;101169.20;;;-4.60;82.33
59073;BME280;44859;51.934;15.554;2023-03-01T01:45:47;101165.15;;;-4.63;82.04
59073;BME280;44859;51.934;15.554;2023-03-01T01:48:55;101162.13;;;-4.67;82.28
59073;BME280;44859;51.934;15.554;2023-03-01T01:52:52;101158.04;;;-4.71;82.45
59073;BME280;44859;51.934;15.554;2023-03-01T01:56:21;101148.83;;;-4.75;82.41
59073;BME280;44859;51.934;15.554;2023-03-01T01:59:42;101144.83;;;-4.77;82.40
59073;BME280;44859;51.934;15.554;2023-03-01T02:02:23;101136.80;;;-4.76;82.56
59073;BME280;44859;51.934;15.554;2023-03-01T02:08:32;101135.95;;;-4.81;82.61
59073;BME280;44859;51.934;15.554;2023-03-01T02:11:24;101138.80;;;-4.82;82.77
59073;BME280;44859;51.934;15.554;2023-03-01T02:14:19;101146.48;;;-4.83;82.76
59073;BME280;44859;51.934;15.554;2023-03-01T02:17:27;101148.58;;;-4.82;82.74
59073;BME280;44859;51.934;15.554;2023-03-01T02:28:40;101146.14;;;-4.83;82.78
59073;BME280;44859;51.934;15.554;2023-03-01T02:31:23;101152.45;;;-4.89;83.04
59073;BME280;44859;51.934;15.554;2023-03-01T02:39:01;101152.89;;;-5.00;82.97
59073;BME280;44859;51.934;15.554;2023-03-01T02:42:14;101154.14;;;-5.03;83.23
59073;BME280;44859;51.934;15.554;2023-03-01T02:45:13;101153.92;;;-5.05;83.44
59073;BME280;44859;51.934;15.554;2023-03-01T02:47:53;101158.15;;;-5.07;83.37
59073;BME280;44859;51.934;15.554;2023-03-01T02:50:58;101159.77;;;-5.09;83.32
59073;BME280;44859;51.934;15.554;2023-03-01T02:54:10;101159.63;;;-5.13;83.23
59073;BME280;44859;51.934;15.554;2023-03-01T02:57:16;101158.90;;;-5.19;83.64
59073;BME280;44859;51.934;15.554;2023-03-01T03:00:28;101157.54;;;-5.23;84.10
59073;BME280;44859;51.934;15.554;2023-03-01T03:03:19;101153.73;;;-5.29;84.05
59073;BME280;44859;51.934;15.554;2023-03-01T03:06:14;101147.86;;;-5.30;84.15
59073;BME280;44859;51.934;15.554;2023-03-01T03:09:30;101147.14;;;-5.22;84.21
59073;BME280;44859;51.934;15.554;2023-03-01T03:12:09;101146.94;;;-5.18;84.38
59073;BME280;44859;51.934;15.554;2023-03-01T03:14:53;101148.32;;;-5.17;84.20
59073;BME280;44859;51.934;15.554;2023-03-01T03:17:39;101150.00;;;-5.19;84.61
59073;BME280;44859;51.934;15.554;2023-03-01T03:20:47;101148.50;;;-5.22;84.35
59073;BME280;44859;51.934;15.554;2023-03-01T03:23:51;101146.88;;;-5.25;84.75
59073;BME280;44859;51.934;15.554;2023-03-01T03:26:34;101141.38;;;-5.25;84.40
59073;BME280;44859;51.934;15.554;2023-03-01T03:29:16;101130.91;;;-5.20;85.19
59073;BME280;44859;51.934;15.554;2023-03-01T03:31:45;101128.14;;;-5.17;85.08
59073;BME280;44859;51.934;15.554;2023-03-01T03:34:18;101123.66;;;-5.17;84.80
59073;BME280;44859;51.934;15.554;2023-03-01T03:36:57;101124.73;;;-5.21;85.28
59073;BME280;44859;51.934;15.554;2023-03-01T03:39:30;101119.29;;;-5.24;85.00
59073;BME280;44859;51.934;15.554;2023-03-01T03:42:38;101120.73;;;-5.27;85.23
59073;BME280;44859;51.934;15.554;2023-03-01T03:45:24;101122.75;;;-5.33;85.46
59073;BME280;44859;51.934;15.554;2023-03-01T03:48:12;101119.75;;;-5.36;85.35
59073;BME280;44859;51.934;15.554;2023-03-01T03:51:14;101119.48;;;-5.38;85.71
59073;BME280;44859;51.934;15.554;2023-03-01T03:53:48;101115.28;;;-5.41;85.55
59073;BME280;44859;51.934;15.554;2023-03-01T03:56:28;101115.62;;;-5.46;85.88
59073;BME280;44859;51.934;15.554;2023-03-01T03:59:30;101118.63;;;-5.47;85.53
59073;BME280;44859;51.934;15.554;2023-03-01T04:02:43;101117.95;;;-5.47;85.86
59073;BME280;44859;51.934;15.554;2023-03-01T04:05:50;101118.42;;;-5.48;86.16
59073;BME280;44859;51.934;15.554;2023-03-01T04:08:35;101116.85;;;-5.49;86.54
59073;BME280;44859;51.934;15.554;2023-03-01T04:14:13;101113.05;;;-5.50;86.51
59073;BME280;44859;51.934;15.554;2023-03-01T04:17:10;101111.55;;;-5.49;86.56
59073;BME280;44859;51.934;15.554;2023-03-01T04:19:51;101107.94;;;-5.50;86.68
59073;BME280;44859;51.934;15.554;2023-03-01T04:22:42;101106.92;;;-5.49;86.54
59073;BME280;44859;51.934;15.554;2023-03-01T04:25:28;101099.27;;;-5.48;86.53
59073;BME280;44859;51.934;15.554;2023-03-01T04:28:07;101100.46;;;-5.48;86.33
59073;BME280;44859;51.934;15.554;2023-03-01T04:30:44;101097.73;;;-5.48;87.00
59073;BME280;44859;51.934;15.554;2023-03-01T04:33:32;101096.90;;;-5.47;86.69
59073;BME280;44859;51.934;15.554;2023-03-01T04:36:09;101093.69;;;-5.46;86.60
59073;BME280;44859;51.934;15.554;2023-03-01T04:39:10;101091.88;;;-5.44;87.15
59073;BME280;44859;51.934;15.554;2023-03-01T04:41:44;101090.72;;;-5.43;87.04
59073;BME280;44859;51.934;15.554;2023-03-01T04:44:25;101088.64;;;-5.44;86.96
59073;BME280;44859;51.934;15.554;2023-03-01T04:46:59;101088.19;;;-5.42;87.16
59073;BME280;44859;51.934;15.554;2023-03-01T04:49:33;101085.53;;;-5.39;86.95
59073;BME280;44859;51.934;15.554;2023-03-01T04:52:09;101089.13;;;-5.39;87.34
59073;BME280;44859;51.934;15.554;2023-03-01T04:54:38;101086.98;;;-5.37;87.23
59073;BME280;44859;51.934;15.554;2023-03-01T04:57:06;101084.98;;;-5.36;87.28
59073;BME280;44859;51.934;15.554;2023-03-01T04:59:34;101087.43;;;-5.34;87.16
59073;BME280;44859;51.934;15.554;2023-03-01T05:02:03;101087.05;;;-5.31;87.48
59073;BME280;44859;51.934;15.554;2023-03-01T05:04:34;101088.10;;;-5.25;87.44
59073;BME280;44859;51.934;15.554;2023-03-01T05:07:08;101086.38;;;-5.21;87.45
59073;BME280;44859;51.934;15.554;2023-03-01T05:13:55;101085.14;;;-5.22;86.96
59073;BME280;44859;51.934;15.554;2023-03-01T05:16:26;101086.94;;;-5.29;87.47
59073;BME280;44859;51.934;15.554;2023-03-01T05:19:05;101085.89;;;-5.34;87.41
59073;BME280;44859;51.934;15.554;2023-03-01T05:21:48;101078.42;;;-5.32;87.31
59073;BME280;44859;51.934;15.554;2023-03-01T05:24:41;101072.29;;;-5.12;87.63
59073;BME280;44859;51.934;15.554;2023-03-01T05:27:09;101076.84;;;-5.10;87.64
59073;BME280;44859;51.934;15.554;2023-03-01T05:30:06;101077.16;;;-5.10;87.73
59073;BME280;44859;51.934;15.554;2023-03-01T05:33:13;101076.56;;;-5.08;87.62
59073;BME280;44859;51.934;15.554;2023-03-01T05:35:51;101077.04;;;-5.13;87.43
59073;BME280;44859;51.934;15.554;2023-03-01T05:38:22;101075.82;;;-5.19;87.43
59073;BME280;44859;51.934;15.554;2023-03-01T05:40:53;101073.47;;;-5.22;87.04
59073;BME280;44859;51.934;15.554;2023-03-01T05:43:48;101074.54;;;-5.26;87.33
59073;BME280;44859;51.934;15.554;2023-03-01T05:46:17;101074.75;;;-5.30;87.09
59073;BME280;44859;51.934;15.554;2023-03-01T05:48:46;101079.35;;;-5.31;87.64
59073;BME280;44859;51.934;15.554;2023-03-01T05:51:42;101080.30;;;-5.32;87.45
59073;BME280;44859;51.934;15.554;2023-03-01T05:54:40;101071.29;;;-5.36;87.58
59073;BME280;44859;51.934;15.554;2023-03-01T05:57:24;101068.80;;;-5.28;87.56
59073;BME280;44859;51.934;15.554;2023-03-01T06:00:01;101072.73;;;-5.14;87.72
59073;BME280;44859;51.934;15.554;2023-03-01T06:02:45;101069.59;;;-5.11;87.91
59073;BME280;44859;51.934;15.554;2023-03-01T06:05:43;101064.58;;;-5.12;87.68
59073;BME280;44859;51.934;15.554;2023-03-01T06:08:49;101064.62;;;-5.11;87.52
59073;BME280;44859;51.934;15.554;2023-03-01T06:11:43;101066.48;;;-5.12;87.63
59073;BME280;44859;51.934;15.554;2023-03-01T06:14:33;101070.41;;;-5.12;87.63
59073;BME280;44859;51.934;15.554;2023-03-01T06:17:11;101070.52;;;-5.09;87.68
59073;BME280;44859;51.934;15.554;2023-03-01T06:19:55;101073.29;;;-5.08;87.81
59073;BME280;44859;51.934;15.554;2023-03-01T06:22:26;101078.81;;;-5.07;87.69
59073;BME280;44859;51.934;15.554;2023-03-01T06:24:55;101073.21;;;-5.06;87.40
59073;BME280;44859;51.934;15.554;2023-03-01T06:27:45;101079.57;;;-5.05;87.15
59073;BME280;44859;51.934;15.554;2023-03-01T06:30:50;101086.17;;;-5.02;87.78
59073;BME280;44859;51.934;15.554;2023-03-01T06:33:29;101087.54;;;-4.97;87.66
59073;BME280;44859;51.934;15.554;2023-03-01T06:36:03;101089.08;;;-4.92;87.49
59073;BME280;44859;51.934;15.554;2023-03-01T06:38:45;101093.41;;;-4.86;88.13
59073;BME280;44859;51.934;15.554;2023-03-01T06:41:17;101088.32;;;-4.80;87.64
59073;BME280;44859;51.934;15.554;2023-03-01T06:43:59;101088.10;;;-4.77;88.03
59073;BME280;44859;51.934;15.554;2023-03-01T06:46:48;101092.33;;;-4.73;87.79
59073;BME280;44859;51.934;15.554;2023-03-01T06:49:19;101096.82;;;-4.66;88.07
59073;BME280;44859;51.934;15.554;2023-03-01T06:51:50;101096.96;;;-4.57;88.01
59073;BME280;44859;51.934;15.554;2023-03-01T06:54:21;101096.65;;;-4.46;88.07
59073;BME280;44859;51.934;15.554;2023-03-01T06:56:53;101097.56;;;-4.34;88.36
59073;BME280;44859;51.934;15.554;2023-03-01T06:59:27;101099.79;;;-4.18;88.28
59073;BME280;44859;51.934;15.554;2023-03-01T07:02:09;101100.52;;;-4.11;88.22
59073;BME280;44859;51.934;15.554;2023-03-01T07:04:59;101100.88;;;-4.05;88.16
59073;BME280;44859;51.934;15.554;2023-03-01T07:07:43;101103.05;;;-3.96;87.90
59073;BME280;44859;51.934;15.554;2023-03-01T07:10:12;101104.77;;;-3.86;88.25
59073;BME280;44859;51.934;15.554;2023-03-01T07:12:43;101105.16;;;-3.72;88.38
59073;BME280;44859;51.934;15.554;2023-03-01T07:15:20;101103.43;;;-3.55;88.47
59073;BME280;44859;51.934;15.554;2023-03-01T07:17:49;101102.37;;;-3.33;88.44
59073;BME280;44859;51.934;15.554;2023-03-01T07:20:33;101098.32;;;-2.93;88.43
59073;BME280;44859;51.934;15.554;2023-03-01T07:23:05;101095.78;;;-2.52;88.94
59073;BME280;44859;51.934;15.554;2023-03-01T07:25:38;101087.38;;;-2.01;88.58
59073;BME280;44859;51.934;15.554;2023-03-01T07:28:19;101084.37;;;-1.51;88.54
59073;BME280;44859;51.934;15.554;2023-03-01T07:31:05;101073.87;;;-0.97;87.91
59073;BME280;44859;51.934;15.554;2023-03-01T07:33:43;101067.55;;;-0.66;87.07
59073;BME280;44859;51.934;15.554;2023-03-01T07:36:18;101065.25;;;-0.38;86.15
59073;BME280;44859;51.934;15.554;2023-03-01T07:39:03;101066.99;;;-0.26;85.49
59073;BME280;44859;51.934;15.554;2023-03-01T07:41:53;101071.17;;;-0.23;84.42
59073;BME280;44859;51.934;15.554;2023-03-01T07:44:37;101069.77;;;-0.04;83.84
59073;BME280;44859;51.934;15.554;2023-03-01T07:47:14;101071.66;;;0.20;82.81
59073;BME280;44859;51.934;15.554;2023-03-01T07:49:52;101069.05;;;0.45;82.10
59073;BME280;44859;51.934;15.554;2023-03-01T07:52:32;101076.80;;;0.55;80.50
59073;BME280;44859;51.934;15.554;2023-03-01T07:55:10;101077.29;;;0.82;80.56
59073;BME280;44859;51.934;15.554;2023-03-01T07:57:51;101075.86;;;1.09;79.95
59073;BME280;44859;51.934;15.554;2023-03-01T08:00:29;101075.39;;;1.31;79.30
59073;BME280;44859;51.934;15.554;2023-03-01T08:02:59;101075.59;;;1.33;78.59
59073;BME280;44859;51.934;15.554;2023-03-01T08:05:35;101070.40;;;1.17;78.00
59073;BME280;44859;51.934;15.554;2023-03-01T08:08:06;101070.48;;;1.07;77.15
59073;BME280;44859;51.934;15.554;2023-03-01T08:10:59;101068.95;;;1.10;76.52
59073;BME280;44859;51.934;15.554;2023-03-01T08:13:28;101069.21;;;1.02;75.99
59073;BME280;44859;51.934;15.554;2023-03-01T08:16:11;101064.09;;;0.92;75.69
59073;BME280;44859;51.934;15.554;2023-03-01T08:22:09;101058.27;;;0.97;74.61
59073;BME280;44859;51.934;15.554;2023-03-01T08:25:00;101053.48;;;0.86;74.26
59073;BME280;44859;51.934;15.554;2023-03-01T08:27:36;101053.14;;;0.73;73.84
59073;BME280;44859;51.934;15.554;2023-03-01T08:30:26;101049.55;;;0.63;73.21
59073;BME280;44859;51.934;15.554;2023-03-01T08:33:17;101041.86;;;0.40;72.95
59073;BME280;44859;51.934;15.554;2023-03-01T08:36:12;101037.86;;;0.38;72.67
59073;BME280;44859;51.934;15.554;2023-03-01T08:39:01;101043.28;;;0.43;72.20
59073;BME280;44859;51.934;15.554;2023-03-01T08:41:45;101042.89;;;0.53;72.56
59073;BME280;44859;51.934;15.554;2023-03-01T08:44:38;101043.30;;;0.59;72.23
59073;BME280;44859;51.934;15.554;2023-03-01T08:47:59;101042.98;;;0.75;72.53
59073;BME280;44859;51.934;15.554;2023-03-01T08:50:46;101039.89;;;0.93;71.69
59073;BME280;44859;51.934;15.554;2023-03-01T08:57:10;101053.10;;;1.17;70.18
59073;BME280;44859;51.934;15.554;2023-03-01T08:59:48;101056.27;;;1.23;69.76
59073;BME280;44859;51.934;15.554;2023-03-01T09:02:33;101054.10;;;1.31;69.77
59073;BME280;44859;51.934;15.554;2023-03-01T09:05:07;101055.00;;;1.34;69.69
59073;BME280;44859;51.934;15.554;2023-03-01T09:07:40;101054.20;;;1.24;69.45
59073;BME280;44859;51.934;15.554;2023-03-01T09:10:32;101058.36;;;1.24;69.70
59073;BME280;44859;51.934;15.554;2023-03-01T09:13:17;101054.19;;;1.23;69.56
59073;BME280;44859;51.934;15.554;2023-03-01T09:16:04;101059.02;;;1.21;69.97
59073;BME280;44859;51.934;15.554;2023-03-01T09:19:24;101059.95;;;1.27;69.96
59073;BME280;44859;51.934;15.554;2023-03-01T09:22:45;101060.63;;;1.27;69.82
59073;BME280;44859;51.934;15.554;2023-03-01T09:26:01;101060.86;;;1.32;69.72
59073;BME280;44859;51.934;15.554;2023-03-01T09:28:43;101061.41;;;1.35;69.38
59073;BME280;44859;51.934;15.554;2023-03-01T09:31:18;101058.34;;;1.39;68.98
59073;BME280;44859;51.934;15.554;2023-03-01T09:34:18;101059.59;;;1.45;68.86
59073;BME280;44859;51.934;15.554;2023-03-01T09:37:13;101058.62;;;1.51;68.28
59073;BME280;44859;51.934;15.554;2023-03-01T09:39:53;101058.41;;;1.48;67.83
59073;BME280;44859;51.934;15.554;2023-03-01T09:42:25;101055.29;;;1.47;67.70
59073;BME280;44859;51.934;15.554;2023-03-01T09:48:26;101052.14;;;1.64;66.53
59073;BME280;44859;51.934;15.554;2023-03-01T09:55:05;101039.27;;;1.79;66.29
59073;BME280;44859;51.934;15.554;2023-03-01T10:00:48;101033.91;;;2.08;66.88
59073;BME280;44859;51.934;15.554;2023-03-01T10:06:44;101037.61;;;2.54;66.43
59073;BME280;44859;51.934;15.554;2023-03-01T10:09:23;101034.52;;;2.65;66.14
59073;BME280;44859;51.934;15.554;2023-03-01T10:15:57;101033.11;;;2.58;65.24
59073;BME280;44859;51.934;15.554;2023-03-01T10:18:55;101033.30;;;2.61;65.01
59073;BME280;44859;51.934;15.554;2023-03-01T10:21:46;101028.83;;;2.73;64.59
59073;BME280;44859;51.934;15.554;2023-03-01T10:24:56;101023.30;;;2.81;64.72
59073;BME280;44859;51.934;15.554;2023-03-01T10:27:53;101016.75;;;3.00;64.38
59073;BME280;44859;51.934;15.554;2023-03-01T10:30:54;101010.71;;;3.20;64.22
59073;BME280;44859;51.934;15.554;2023-03-01T10:33:36;101010.00;;;3.25;63.17
59073;BME280;44859;51.934;15.554;2023-03-01T10:36:18;101007.58;;;3.20;62.60
59073;BME280;44859;51.934;15.554;2023-03-01T10:42:32;101000.13;;;3.37;62.49
59073;BME280;44859;51.934;15.554;2023-03-01T10:45:27;101000.45;;;3.64;61.99
59073;BME280;44859;51.934;15.554;2023-03-01T10:48:16;101000.25;;;3.92;61.22
59073;BME280;44859;51.934;15.554;2023-03-01T10:51:20;101000.36;;;4.19;60.76
59073;BME280;44859;51.934;15.554;2023-03-01T10:53:57;101002.05;;;4.28;60.24
59073;BME280;44859;51.934;15.554;2023-03-01T10:57:17;100986.53;;;4.39;59.42
59073;BME280;44859;51.934;15.554;2023-03-01T11:06:46;100975.28;;;4.92;55.70
59073;BME280;44859;51.934;15.554;2023-03-01T11:09:45;100972.35;;;5.14;54.84
59073;BME280;44859;51.934;15.554;2023-03-01T11:12:26;100973.25;;;5.10;54.64
59073;BME280;44859;51.934;15.554;2023-03-01T11:15:26;100967.50;;;5.10;53.50
59073;BME280;44859;51.934;15.554;2023-03-01T11:17:58;100968.92;;;5.28;52.74
59073;BME280;44859;51.934;15.554;2023-03-01T11:21:12;100965.23;;;5.53;51.68
59073;BME280;44859;51.934;15.554;2023-03-01T11:27:27;100967.09;;;5.59;51.13
59073;BME280;44859;51.934;15.554;2023-03-01T11:30:13;100968.94;;;5.66;49.93
59073;BME280;44859;51.934;15.554;2023-03-01T11:41:26;100972.55;;;5.72;48.02
59073;BME280;44859;51.934;15.554;2023-03-01T11:44:20;100969.27;;;5.85;47.70
59073;BME280;44859;51.934;15.554;2023-03-01T11:53:09;100973.66;;;5.64;45.10
59073;BME280;44859;51.934;15.554;2023-03-01T11:56:02;100968.50;;;5.17;46.26
59073;BME280;44859;51.934;15.554;2023-03-01T11:58:53;100962.50;;;5.26;44.82
59073;BME280;44859;51.934;15.554;2023-03-01T12:08:42;100958.85;;;5.26;43.27
59073;BME280;44859;51.934;15.554;2023-03-01T12:11:52;100954.69;;;5.01;43.25
59073;BME280;44859;51.934;15.554;2023-03-01T12:20:51;100944.08;;;5.42;42.62
59073;BME280;44859;51.934;15.554;2023-03-01T12:27:00;100933.27;;;5.94;42.75
59073;BME280;44859;51.934;15.554;2023-03-01T12:45:34;100916.76;;;6.06;42.22
59073;BME280;44859;51.934;15.554;2023-03-01T12:48:22;100914.54;;;6.30;42.10
59073;BME280;44859;51.934;15.554;2023-03-01T12:51:05;100904.21;;;6.33;42.29
59073;BME280;44859;51.934;15.554;2023-03-01T12:53:53;100901.47;;;6.66;40.94
59073;BME280;44859;51.934;15.554;2023-03-01T13:15:36;100872.95;;;7.34;38.23
59073;BME280;44859;51.934;15.554;2023-03-01T13:21:01;100868.02;;;7.35;38.29
59073;BME280;44859;51.934;15.554;2023-03-01T13:23:39;100859.27;;;7.36;38.17
59073;BME280;44859;51.934;15.554;2023-03-01T13:26:19;100857.87;;;7.16;37.42
59073;BME280;44859;51.934;15.554;2023-03-01T13:28:54;100863.77;;;6.89;37.66
59073;BME280;44859;51.934;15.554;2023-03-01T13:35:03;100855.73;;;6.78;38.01
59073;BME280;44859;51.934;15.554;2023-03-01T13:41:47;100842.64;;;7.08;38.31
59073;BME280;44859;51.934;15.554;2023-03-01T13:44:33;100836.54;;;7.64;38.77
59073;BME280;44859;51.934;15.554;2023-03-01T13:47:39;100834.05;;;7.83;38.31
59073;BME280;44859;51.934;15.554;2023-03-01T13:50:35;100836.73;;;7.36;38.96
59073;BME280;44859;51.934;15.554;2023-03-01T13:53:17;100841.13;;;7.35;38.03
59073;BME280;44859;51.934;15.554;2023-03-01T13:56:23;100830.69;;;7.23;38.38
59073;BME280;44859;51.934;15.554;2023-03-01T13:58:58;100823.12;;;7.44;38.84
59073;BME280;44859;51.934;15.554;2023-03-01T14:01:35;100821.45;;;7.40;38.74
59073;BME280;44859;51.934;15.554;2023-03-01T14:04:25;100823.31;;;7.43;38.43
59073;BME280;44859;51.934;15.554;2023-03-01T14:07:22;100818.16;;;7.73;37.77
59073;BME280;44859;51.934;15.554;2023-03-01T14:10:01;100815.23;;;7.96;37.91
59073;BME280;44859;51.934;15.554;2023-03-01T14:12:47;100816.60;;;7.82;36.58
59073;BME280;44859;51.934;15.554;2023-03-01T14:19:28;100811.42;;;7.61;36.57
59073;BME280;44859;51.934;15.554;2023-03-01T14:30:42;100797.66;;;8.62;34.20
59073;BME280;44859;51.934;15.554;2023-03-01T14:33:33;100800.54;;;8.27;33.02
59073;BME280;44859;51.934;15.554;2023-03-01T14:36:33;100793.21;;;8.04;32.62
59073;BME280;44859;51.934;15.554;2023-03-01T14:39:01;100792.94;;;7.76;31.45
59073;BME280;44859;51.934;15.554;2023-03-01T14:41:34;100791.95;;;7.81;31.64
59073;BME280;44859;51.934;15.554;2023-03-01T14:44:28;100792.16;;;8.20;31.56
59073;BME280;44859;51.934;15.554;2023-03-01T14:47:00;100792.02;;;8.56;31.13
59073;BME280;44859;51.934;15.554;2023-03-01T14:49:32;100790.20;;;8.87;31.35
59073;BME280;44859;51.934;15.554;2023-03-01T14:52:20;100793.00;;;9.00;31.14
59073;BME280;44859;51.934;15.554;2023-03-01T14:54:56;100789.73;;;9.18;30.41
59073;BME280;44859;51.934;15.554;2023-03-01T14:57:34;100788.39;;;9.29;29.09
59073;BME280;44859;51.934;15.554;2023-03-01T15:04:56;100782.73;;;8.85;30.59
59073;BME280;44859;51.934;15.554;2023-03-01T15:07:37;100786.52;;;8.80;29.94
59073;BME280;44859;51.934;15.554;2023-03-01T15:10:59;100784.04;;;8.89;31.07
59073;BME280;44859;51.934;15.554;2023-03-01T15:13:54;100779.70;;;9.33;30.80
59073;BME280;44859;51.934;15.554;2023-03-01T15:16:44;100780.48;;;9.30;30.37
59073;BME280;44859;51.934;15.554;2023-03-01T15:19:17;100778.53;;;9.18;30.30
59073;BME280;44859;51.934;15.554;2023-03-01T15:21:58;100777.93;;;9.20;30.64
59073;BME280;44859;51.934;15.554;2023-03-01T15:24:37;100779.11;;;8.96;30.86
59073;BME280;44859;51.934;15.554;2023-03-01T15:27:46;100778.41;;;8.90;31.08
59073;BME280;44859;51.934;15.554;2023-03-01T15:30:42;100782.42;;;8.47;31.54
59073;BME280;44859;51.934;15.554;2023-03-01T15:33:37;100782.98;;;8.22;32.30
59073;BME280;44859;51.934;15.554;2023-03-01T15:36:53;100781.08;;;7.74;33.07
59073;BME280;44859;51.934;15.554;2023-03-01T15:40:48;100791.52;;;6.85;34.26
59073;BME280;44859;51.934;15.554;2023-03-01T15:43:00;100791.81;;;6.25;35.06
59073;BME280;44859;51.934;15.554;2023-03-01T15:45:58;100789.40;;;5.82;36.16
59073;BME280;44859;51.934;15.554;2023-03-01T15:53:16;100784.20;;;5.22;37.84
59073;BME280;44859;51.934;15.554;2023-03-01T15:56:05;100788.06;;;5.02;38.43
59073;BME280;44859;51.934;15.554;2023-03-01T15:59:12;100785.23;;;4.87;38.86
59073;BME280;44859;51.934;15.554;2023-03-01T16:01:54;100784.95;;;4.81;39.53
59073;BME280;44859;51.934;15.554;2023-03-01T16:08:38;100786.15;;;4.64;40.25
59073;BME280;44859;51.934;15.554;2023-03-01T16:11:21;100784.20;;;4.46;40.90
59073;BME280;44859;51.934;15.554;2023-03-01T16:17:30;100782.05;;;4.06;42.07
59073;BME280;44859;51.934;15.554;2023-03-01T16:20:25;100775.91;;;3.84;42.73
59073;BME280;44859;51.934;15.554;2023-03-01T16:23:03;100776.17;;;3.68;42.99
59073;BME280;44859;51.934;15.554;2023-03-01T16:26:14;100781.60;;;3.59;43.59
59073;BME280;44859;51.934;15.554;2023-03-01T16:32:57;100788.81;;;3.29;45.24
59073;BME280;44859;51.934;15.554;2023-03-01T16:35:40;100800.33;;;3.09;45.98
59073;BME280;44859;51.934;15.554;2023-03-01T16:38:26;100803.30;;;2.84;46.80
59073;BME280;44859;51.934;15.554;2023-03-01T16:41:34;100801.94;;;2.56;47.86
59073;BME280;44859;51.934;15.554;2023-03-01T16:48:14;100798.73;;;1.97;49.27
59073;BME280;44859;51.934;15.554;2023-03-01T16:51:21;100796.27;;;1.81;50.09
59073;BME280;44859;51.934;15.554;2023-03-01T16:53:53;100796.34;;;1.58;50.89
59073;BME280;44859;51.934;15.554;2023-03-01T17:03:15;100801.12;;;1.09;53.18
59073;BME280;44859;51.934;15.554;2023-03-01T17:05:57;100800.20;;;1.00;53.67
59073;BME280;44859;51.934;15.554;2023-03-01T17:08:57;100807.92;;;0.91;54.07
59073;BME280;44859;51.934;15.554;2023-03-01T17:11:43;100818.08;;;0.84;54.42
59073;BME280;44859;51.934;15.554;2023-03-01T17:14:35;100820.80;;;0.78;55.02
59073;BME280;44859;51.934;15.554;2023-03-01T17:17:15;100822.45;;;0.69;55.73
59073;BME280;44859;51.934;15.554;2023-03-01T17:19:43;100821.17;;;0.61;55.96
59073;BME280;44859;51.934;15.554;2023-03-01T17:22:31;100821.28;;;0.56;56.45
59073;BME280;44859;51.934;15.554;2023-03-01T17:25:18;100820.00;;;0.46;57.21
59073;BME280;44859;51.934;15.554;2023-03-01T17:27:48;100819.92;;;0.37;57.42
59073;BME280;44859;51.934;15.554;2023-03-01T17:30:43;100815.17;;;0.27;57.60
59073;BME280;44859;51.934;15.554;2023-03-01T17:40:33;100824.82;;;0.08;58.31
59073;BME280;44859;51.934;15.554;2023-03-01T17:43:07;100827.71;;;0.05;58.75
59073;BME280;44859;51.934;15.554;2023-03-01T17:45:58;100831.64;;;-0.01;58.64
59073;BME280;44859;51.934;15.554;2023-03-01T17:48:31;100828.13;;;-0.07;58.48
59073;BME280;44859;51.934;15.554;2023-03-01T17:55:01;100826.11;;;-0.17;57.89
59073;BME280;44859;51.934;15.554;2023-03-01T18:01:30;100825.17;;;-0.23;58.28
59073;BME280;44859;51.934;15.554;2023-03-01T18:04:58;100829.27;;;-0.27;58.36
59073;BME280;44859;51.934;15.554;2023-03-01T18:07:45;100827.54;;;-0.27;58.45
59073;BME280;44859;51.934;15.554;2023-03-01T18:10:13;100825.98;;;-0.27;58.65
59073;BME280;44859;51.934;15.554;2023-03-01T18:12:40;100823.54;;;-0.28;58.46
59073;BME280;44859;51.934;15.554;2023-03-01T18:15:29;100821.83;;;-0.28;58.64
59073;BME280;44859;51.934;15.554;2023-03-01T18:18:10;100816.77;;;-0.31;59.02
59073;BME280;44859;51.934;15.554;2023-03-01T18:20:37;100813.63;;;-0.36;59.04
59073;BME280;44859;51.934;15.554;2023-03-01T18:26:11;100808.63;;;-0.48;58.90
59073;BME280;44859;51.934;15.554;2023-03-01T18:28:43;100805.30;;;-0.52;58.78
59073;BME280;44859;51.934;15.554;2023-03-01T18:31:15;100801.92;;;-0.47;58.48
59073;BME280;44859;51.934;15.554;2023-03-01T18:33:53;100797.33;;;-0.41;58.12
59073;BME280;44859;51.934;15.554;2023-03-01T18:36:30;100797.39;;;-0.37;58.06